KCMI/CMI METAR and TAF weather

Enter ICAO airport designator
Station Type Date Time Source
KCMI METAR 2021/05/10 23:53 UTC NOAA

KCMI 102353Z 08004KT 10SM OVC070 12/07 A3012 RMK AO2 SLP203 T01220072 10178 20122 51003


Station Type Date Time Source
KCMI Decoded METAR 2021/05/10 23:53 UTC NOAA

UNIV OF ILLINOIS-WILLARD, IL, United States (KCMI) 40-02N 088-16W 228M
May 10, 2021 - 07:53 PM EDT / 2021.05.10 2353 UTC
Wind: from the E (080 degrees) at 5 MPH (4 KT):0
Visibility: 10 mile(s):0
Sky conditions: overcast
Temperature: 54.0 F (12.2 C)
Dew Point: 45.0 F (7.2 C)
Relative Humidity: 71%
Pressure (altimeter): 30.12 in. Hg (1019 hPa)
Pressure tendency: 0.01 inches (0.3 hPa) higher than three hours ago
ob: KCMI 102353Z 08004KT 10SM OVC070 12/07 A3012 RMK AO2 SLP203 T01220072 10178 20122 51003
cycle: 0

Station Type Date Time Source
KCMI TAF 2021/05/10 18:40 UTC NOAA

TAF KCMI 101738Z 1018/1118 26009KT P6SM VCSH SCT060 BKN250
FM102000 26009KT P6SM VCSH BKN060
FM110200 03008KT P6SM VCSH BKN060
FM110500 03008KT P6SM BKN060
FM111300 04012KT P6SM SCT250

Example: see airport list